Time;durP1;ratioP1;P1;durP2;ratioP2;P2;SDS_P1;SDS_P2;PMS_P1;PMS_P2;Temp;Humidity;BMP_temperature;BMP_pressure;BME280_temperature;BME280_humidity;BME280_pressure;Samples;Min_cycle;Max_cycle;Signal;HPM_P1;HPM_P2
2023/08/16 00:02:07;;;;;;;6.90;6.13;;;20.00;99.90;;;;;;5054515;28;20021;-79
2023/08/16 00:04:33;;;;;;;6.38;5.15;;;20.10;99.90;;;;;;5054366;28;20032;-79
2023/08/16 00:06:59;;;;;;;10.07;5.43;;;20.10;99.90;;;;;;5055552;28;20021;-79
2023/08/16 00:09:25;;;;;;;6.85;5.15;;;20.10;99.90;;;;;;5055414;28;20096;-79
2023/08/16 00:11:50;;;;;;;6.03;5.43;;;20.10;99.90;;;;;;5055929;28;20037;-78
2023/08/16 00:14:16;;;;;;;6.57;5.93;;;20.10;99.90;;;;;;5055903;28;20028;-78
2023/08/16 00:16:42;;;;;;;6.63;6.03;;;20.00;99.90;;;;;;5053549;28;20029;-79
2023/08/16 00:19:08;;;;;;;5.55;5.07;;;20.00;99.90;;;;;;5055264;28;20403;-79
2023/08/16 00:21:33;;;;;;;5.70;5.20;;;20.00;99.90;;;;;;5059331;28;20021;-78
2023/08/16 00:23:59;;;;;;;7.22;5.95;;;20.00;99.90;;;;;;5057882;28;20025;-78
2023/08/16 00:26:25;;;;;;;6.82;5.68;;;20.10;99.90;;;;;;5057681;28;20102;-79
2023/08/16 00:28:50;;;;;;;9.68;5.45;;;20.10;99.90;;;;;;5059287;28;20246;-78
2023/08/16 00:31:16;;;;;;;11.75;5.72;;;20.10;99.90;;;;;;5059285;28;20021;-79
2023/08/16 00:33:41;;;;;;;7.72;5.93;;;20.00;99.90;;;;;;5058526;28;20082;-79
2023/08/16 00:36:07;;;;;;;7.25;6.20;;;20.00;99.90;;;;;;5058696;28;20075;-78
2023/08/16 00:38:34;;;;;;;6.35;5.75;;;20.00;99.90;;;;;;5056857;28;20509;-78
2023/08/16 00:40:59;;;;;;;6.28;5.53;;;20.00;99.90;;;;;;5058693;28;20102;-78
2023/08/16 00:43:25;;;;;;;5.82;5.22;;;20.10;99.90;;;;;;5057054;28;20475;-77
2023/08/16 00:45:51;;;;;;;5.75;5.20;;;20.10;99.90;;;;;;5056993;28;20167;-79
2023/08/16 00:48:18;;;;;;;7.13;6.07;;;20.10;99.90;;;;;;5058220;28;20030;-79
2023/08/16 00:50:45;;;;;;;6.32;5.72;;;20.10;99.90;;;;;;5058299;28;20036;-77
2023/08/16 00:53:14;;;;;;;5.30;4.80;;;20.10;99.90;;;;;;5058532;28;20025;-78
2023/08/16 00:55:40;;;;;;;6.43;5.15;;;20.10;99.90;;;;;;5058604;28;20029;-79
2023/08/16 00:58:06;;;;;;;5.00;4.50;;;20.10;99.90;;;;;;5058323;28;20025;-79
2023/08/16 01:00:32;;;;;;;6.25;5.20;;;20.10;99.90;;;;;;5058278;28;20033;-78
2023/08/16 01:02:58;;;;;;;7.70;5.18;;;20.00;99.90;;;;;;5056806;28;20029;-78
2023/08/16 01:05:24;;;;;;;5.80;5.20;;;19.90;99.90;;;;;;5058386;28;20498;-79
2023/08/16 01:07:50;;;;;;;5.47;4.60;;;19.90;99.90;;;;;;5056743;28;20033;-78
2023/08/16 01:10:16;;;;;;;6.57;5.75;;;19.90;99.90;;;;;;5056411;28;20399;-78
2023/08/16 01:12:45;;;;;;;6.45;5.82;;;19.90;99.90;;;;;;5056860;28;20398;-79
2023/08/16 01:15:30;;;;;;;7.38;5.30;;;19.90;99.90;;;;;;5058288;28;20025;-79
2023/08/16 01:17:58;;;;;;;7.47;5.60;;;19.80;99.90;;;;;;5056025;28;20032;-78
2023/08/16 01:20:27;;;;;;;6.93;6.22;;;19.70;99.90;;;;;;5056406;28;20036;-79
2023/08/16 01:23:43;;;;;;;6.00;5.40;;;19.80;99.90;;;;;;5058258;28;20025;-78
2023/08/16 01:26:25;;;;;;;9.73;5.75;;;19.70;99.90;;;;;;5057505;28;20106;-78
2023/08/16 01:28:52;;;;;;;6.68;5.20;;;19.60;99.90;;;;;;5056631;28;20029;-77
2023/08/16 01:31:18;;;;;;;5.68;5.18;;;19.70;99.90;;;;;;5058274;28;20013;-79
2023/08/16 01:33:44;;;;;;;6.55;5.95;;;19.70;99.90;;;;;;5057184;28;20372;-78
2023/08/16 01:36:10;;;;;;;7.63;5.70;;;19.60;99.90;;;;;;5057683;28;20025;-79
2023/08/16 01:38:35;;;;;;;6.45;5.30;;;19.60;99.90;;;;;;5057936;28;20459;-79
2023/08/16 01:41:09;;;;;;;6.93;6.32;;;19.60;99.90;;;;;;5056522;28;20475;-78
2023/08/16 01:43:35;;;;;;;7.45;5.70;;;19.60;99.90;;;;;;5056699;28;20069;-78
2023/08/16 01:46:04;;;;;;;5.80;5.28;;;19.60;99.90;;;;;;5057961;28;20028;-79
2023/08/16 01:48:32;;;;;;;5.97;5.47;;;19.60;99.90;;;;;;5058312;28;20107;-79
2023/08/16 01:50:58;;;;;;;6.60;5.43;;;19.50;99.90;;;;;;5056106;28;20085;-79
2023/08/16 01:53:24;;;;;;;6.15;5.55;;;19.50;99.90;;;;;;5057915;28;20020;-78
2023/08/16 01:55:49;;;;;;;6.53;5.85;;;19.60;99.90;;;;;;5057970;28;20037;-77
2023/08/16 01:58:16;;;;;;;7.07;5.65;;;19.50;99.90;;;;;;5055939;28;20025;-79
2023/08/16 02:00:42;;;;;;;5.43;4.88;;;19.40;99.90;;;;;;5056863;28;20024;-78
2023/08/16 02:03:07;;;;;;;7.80;6.18;;;19.40;99.90;;;;;;5057760;28;20027;-78
2023/08/16 02:05:33;;;;;;;7.00;6.30;;;19.40;99.90;;;;;;5056515;28;20017;-79
2023/08/16 02:07:58;;;;;;;7.72;6.20;;;19.40;99.90;;;;;;5057554;28;20077;-78
2023/08/16 02:10:24;;;;;;;7.95;5.63;;;19.30;99.90;;;;;;5058442;28;20100;-78
2023/08/16 02:12:50;;;;;;;5.78;5.25;;;19.30;99.90;;;;;;5059132;28;20429;-78
2023/08/16 02:15:15;;;;;;;6.80;5.45;;;19.20;99.90;;;;;;5057282;28;20032;-79
2023/08/16 02:17:41;;;;;;;6.03;5.43;;;19.10;99.90;;;;;;5060783;28;20056;-78
2023/08/16 02:20:08;;;;;;;5.97;4.82;;;19.00;99.90;;;;;;5065229;28;20025;-78
2023/08/16 02:22:34;;;;;;;6.85;5.90;;;19.00;99.90;;;;;;5064521;28;20028;-78
2023/08/16 02:24:59;;;;;;;6.70;5.13;;;19.00;99.90;;;;;;5064810;28;20048;-78
2023/08/16 02:27:25;;;;;;;6.88;6.22;;;19.00;99.90;;;;;;5054390;28;20052;-78
2023/08/16 02:29:51;;;;;;;6.35;5.47;;;19.00;99.90;;;;;;5053387;28;20074;-78
2023/08/16 02:32:17;;;;;;;7.50;5.68;;;18.90;99.90;;;;;;5054797;28;20021;-77
2023/08/16 02:34:43;;;;;;;7.35;5.75;;;18.90;99.90;;;;;;5054674;28;20074;-78
2023/08/16 02:37:09;;;;;;;8.38;5.97;;;18.90;99.90;;;;;;5080732;22;20040;-78
2023/08/16 02:39:34;;;;;;;6.43;5.55;;;19.00;99.90;;;;;;5072476;28;20044;-78
2023/08/16 02:42:01;;;;;;;7.45;5.88;;;19.00;99.90;;;;;;5073205;28;20074;-78
2023/08/16 02:44:26;;;;;;;6.72;5.60;;;19.00;99.90;;;;;;5072166;28;20166;-78
2023/08/16 02:46:52;;;;;;;7.10;6.40;;;19.00;99.90;;;;;;5072818;28;20074;-78
2023/08/16 02:49:18;;;;;;;9.82;5.95;;;18.80;99.90;;;;;;5071953;28;20025;-78
2023/08/16 02:51:43;;;;;;;7.10;6.40;;;18.70;99.90;;;;;;5073381;28;20137;-77
2023/08/16 02:54:09;;;;;;;6.53;5.93;;;18.70;99.90;;;;;;5072078;28;20039;-78
2023/08/16 02:56:34;;;;;;;6.80;5.75;;;18.70;99.90;;;;;;5071725;28;20031;-78
2023/08/16 02:59:00;;;;;;;6.93;6.30;;;18.70;99.90;;;;;;5073198;28;20079;-78
2023/08/16 03:01:26;;;;;;;7.53;6.53;;;18.70;99.90;;;;;;5073013;28;20048;-76
2023/08/16 03:03:52;;;;;;;7.30;6.60;;;18.60;99.90;;;;;;5071609;28;20107;-77
2023/08/16 03:06:18;;;;;;;6.70;6.10;;;18.70;99.90;;;;;;5072903;28;20021;-77
2023/08/16 03:08:43;;;;;;;7.85;7.05;;;18.70;99.90;;;;;;5071716;28;20082;-78
2023/08/16 03:11:09;;;;;;;7.13;5.70;;;18.70;99.90;;;;;;5072989;28;20024;-78
2023/08/16 03:13:34;;;;;;;6.55;5.85;;;18.70;99.90;;;;;;5072797;28;20032;-77
2023/08/16 03:16:00;;;;;;;8.15;5.95;;;18.60;99.90;;;;;;5072522;28;20063;-77
2023/08/16 03:18:26;;;;;;;6.40;5.72;;;18.60;99.90;;;;;;5071171;28;20086;-77
2023/08/16 03:20:51;;;;;;;6.75;6.03;;;18.60;99.90;;;;;;5072670;28;20059;-77
2023/08/16 03:23:17;;;;;;;6.10;5.55;;;18.60;99.90;;;;;;5072365;28;20474;-78
2023/08/16 03:25:44;;;;;;;6.30;5.72;;;18.60;99.90;;;;;;5071440;28;20501;-78
2023/08/16 03:28:09;;;;;;;7.63;6.25;;;18.60;99.90;;;;;;5071193;28;20025;-78
2023/08/16 03:30:35;;;;;;;8.20;6.13;;;18.60;99.90;;;;;;5072434;28;20024;-77
2023/08/16 03:33:01;;;;;;;7.30;6.57;;;18.60;99.90;;;;;;5071172;28;20036;-78
2023/08/16 03:35:26;;;;;;;7.53;6.13;;;18.60;99.90;;;;;;5071242;28;20059;-76
2023/08/16 03:37:52;;;;;;;7.82;5.70;;;18.60;99.90;;;;;;5071765;28;20036;-76
2023/08/16 03:40:17;;;;;;;6.80;6.10;;;18.60;99.90;;;;;;5072432;28;20031;-77
2023/08/16 03:42:43;;;;;;;7.25;6.10;;;18.60;99.90;;;;;;5071020;28;20477;-77
2023/08/16 03:45:09;;;;;;;7.80;6.00;;;18.60;99.90;;;;;;5072469;28;20028;-78
2023/08/16 03:47:35;;;;;;;8.90;6.85;;;18.50;99.90;;;;;;5070708;28;20037;-76
2023/08/16 03:50:00;;;;;;;6.88;6.18;;;18.60;99.90;;;;;;5072384;28;20127;-78
2023/08/16 03:52:26;;;;;;;8.95;6.22;;;18.60;99.90;;;;;;5071309;28;20048;-77
2023/08/16 03:54:53;;;;;;;16.00;7.65;;;18.60;99.90;;;;;;5071792;28;20066;-78
2023/08/16 03:57:21;;;;;;;6.60;5.78;;;18.50;99.90;;;;;;5071326;28;20097;-77
2023/08/16 03:59:46;;;;;;;8.25;6.93;;;18.50;99.90;;;;;;5072062;28;20025;-78
2023/08/16 04:02:12;;;;;;;8.63;6.47;;;18.40;99.90;;;;;;5073111;28;20112;-77
2023/08/16 04:04:37;;;;;;;9.02;6.70;;;18.40;99.90;;;;;;5071668;28;20031;-79
2023/08/16 04:07:03;;;;;;;7.85;7.05;;;18.40;99.90;;;;;;5072661;28;20020;-78
2023/08/16 04:09:29;;;;;;;9.07;7.03;;;18.50;99.90;;;;;;5072284;28;20170;-78
2023/08/16 04:11:54;;;;;;;8.43;6.93;;;18.50;99.90;;;;;;5072330;28;20402;-77
2023/08/16 04:14:20;;;;;;;8.43;6.70;;;18.50;99.90;;;;;;5071789;28;20024;-78
2023/08/16 04:16:46;;;;;;;8.48;6.70;;;18.50;99.90;;;;;;5072626;28;20386;-78
2023/08/16 04:19:11;;;;;;;11.00;7.88;;;18.60;99.90;;;;;;5071573;28;20032;-78
2023/08/16 04:21:38;;;;;;;13.32;8.23;;;18.60;99.90;;;;;;5071764;28;20078;-77
2023/08/16 04:24:04;;;;;;;8.23;7.07;;;18.60;99.90;;;;;;5074374;28;20031;-80
2023/08/16 04:26:30;;;;;;;8.05;6.95;;;18.60;99.90;;;;;;5073518;28;20383;-80
2023/08/16 04:28:55;;;;;;;10.15;7.60;;;18.70;99.90;;;;;;5074918;28;20051;-80
2023/08/16 04:31:21;;;;;;;7.97;7.18;;;18.60;99.90;;;;;;5074202;28;20032;-78
2023/08/16 04:33:46;;;;;;;9.38;7.72;;;18.70;99.90;;;;;;5073235;28;20047;-78
2023/08/16 04:36:12;;;;;;;10.05;7.50;;;18.60;99.90;;;;;;5073473;28;20036;-78
2023/08/16 04:38:38;;;;;;;9.55;7.38;;;18.70;99.90;;;;;;5073934;28;20043;-78
2023/08/16 04:41:03;;;;;;;8.20;7.38;;;18.70;99.90;;;;;;5074774;28;20031;-80
2023/08/16 04:43:29;;;;;;;9.88;8.88;;;18.70;99.90;;;;;;5072682;28;20029;-79
2023/08/16 04:45:54;;;;;;;10.82;6.47;;;18.80;99.90;;;;;;5074138;28;20367;-81
2023/08/16 04:48:20;;;;;;;10.77;8.90;;;19.30;99.90;;;;;;5073316;28;20071;-82
2023/08/16 04:50:46;;;;;;;8.73;7.70;;;19.90;99.90;;;;;;5075982;28;20021;-80
2023/08/16 04:53:11;;;;;;;10.77;8.13;;;20.20;99.90;;;;;;5072764;28;20047;-80
2023/08/16 04:55:37;;;;;;;8.25;6.72;;;20.30;99.90;;;;;;5072955;28;20021;-79
2023/08/16 04:58:03;;;;;;;9.27;7.03;;;20.50;99.90;;;;;;5070723;28;20024;-79
2023/08/16 05:00:28;;;;;;;12.23;7.15;;;20.80;99.90;;;;;;5075190;28;20505;-78
2023/08/16 05:02:54;;;;;;;11.60;7.20;;;21.20;99.90;;;;;;5072116;28;20024;-77
2023/08/16 05:05:19;;;;;;;7.57;6.50;;;21.10;99.90;;;;;;5074075;28;20422;-77
2023/08/16 05:07:45;;;;;;;9.02;6.97;;;21.10;99.90;;;;;;5075485;28;20024;-78
2023/08/16 05:10:11;;;;;;;5.93;5.22;;;21.50;99.90;;;;;;5074387;28;20062;-78
2023/08/16 05:12:36;;;;;;;7.93;6.40;;;21.40;99.90;;;;;;5074404;28;20028;-79
2023/08/16 05:15:02;;;;;;;6.00;5.40;;;21.10;99.90;;;;;;5074022;28;20029;-79
2023/08/16 05:17:27;;;;;;;6.28;5.70;;;21.00;99.90;;;;;;5075087;28;20029;-78
2023/08/16 05:19:53;;;;;;;11.75;6.53;;;20.70;99.90;;;;;;5073994;28;20024;-79
2023/08/16 05:22:19;;;;;;;14.75;6.68;;;20.70;99.90;;;;;;5074145;28;20020;-78
2023/08/16 05:24:45;;;;;;;7.60;6.65;;;20.60;99.90;;;;;;5074037;28;20028;-78
2023/08/16 05:27:13;;;;;;;7.75;6.82;;;20.90;99.90;;;;;;5073733;28;20070;-78
2023/08/16 05:29:40;;;;;;;7.38;6.05;;;20.90;99.90;;;;;;5074034;28;20059;-78
2023/08/16 05:32:05;;;;;;;7.03;6.32;;;21.20;99.90;;;;;;5073946;28;20445;-78
2023/08/16 05:34:31;;;;;;;8.00;6.10;;;21.20;99.90;;;;;;5073809;28;20028;-79
2023/08/16 05:36:57;;;;;;;8.43;6.85;;;21.00;99.90;;;;;;5074688;28;20025;-78
2023/08/16 05:39:22;;;;;;;9.73;6.03;;;21.00;99.90;;;;;;5074877;28;20032;-78
2023/08/16 05:41:48;;;;;;;6.65;5.35;;;21.10;99.90;;;;;;5073828;28;20078;-77
2023/08/16 05:44:14;;;;;;;7.43;6.70;;;21.20;99.90;;;;;;5073574;28;20024;-78
2023/08/16 05:46:39;;;;;;;8.15;6.38;;;21.30;99.90;;;;;;5073393;28;20031;-78
2023/08/16 05:49:05;;;;;;;7.00;6.32;;;21.30;99.90;;;;;;5074562;28;20082;-78
2023/08/16 05:51:32;;;;;;;9.77;6.40;;;21.40;99.90;;;;;;5073196;28;20025;-79
2023/08/16 05:53:58;;;;;;;6.63;6.00;;;21.30;99.90;;;;;;5073105;28;20085;-79
2023/08/16 05:56:24;;;;;;;7.90;6.85;;;21.20;99.90;;;;;;5073917;28;20495;-78
2023/08/16 05:58:50;;;;;;;7.90;6.82;;;21.20;99.90;;;;;;5074413;28;20587;-78
2023/08/16 06:01:15;;;;;;;7.15;6.13;;;21.20;99.90;;;;;;5073070;28;20584;-77
2023/08/16 06:03:41;;;;;;;7.55;6.80;;;21.30;99.90;;;;;;5072893;28;20161;-78
2023/08/16 06:06:06;;;;;;;7.78;7.03;;;21.30;99.90;;;;;;5072835;28;20390;-78
2023/08/16 06:08:32;;;;;;;9.02;6.35;;;21.30;99.90;;;;;;5072642;28;20024;-79
2023/08/16 06:10:58;;;;;;;7.65;6.85;;;21.30;99.90;;;;;;5074305;28;20566;-79
2023/08/16 06:13:23;;;;;;;7.53;6.78;;;21.40;99.90;;;;;;5072900;28;20038;-78
2023/08/16 06:15:50;;;;;;;7.95;7.15;;;21.50;99.90;;;;;;5072259;28;20029;-78
2023/08/16 06:18:16;;;;;;;9.88;6.93;;;21.70;99.90;;;;;;5072179;28;20405;-78
2023/08/16 06:20:41;;;;;;;10.02;6.18;;;21.70;99.90;;;;;;5073570;28;20024;-78
2023/08/16 06:23:07;;;;;;;7.88;5.95;;;21.80;99.90;;;;;;5072715;28;20025;-78
2023/08/16 06:25:33;;;;;;;7.22;6.38;;;21.80;99.90;;;;;;5073740;28;20031;-78
2023/08/16 06:27:59;;;;;;;7.97;6.28;;;21.90;99.90;;;;;;5073564;28;20494;-78
2023/08/16 06:30:24;;;;;;;8.13;7.15;;;22.00;99.90;;;;;;5072167;28;20025;-78
2023/08/16 06:32:50;;;;;;;10.18;6.65;;;22.10;99.90;;;;;;5072210;28;20029;-78
2023/08/16 06:35:15;;;;;;;5.28;4.78;;;22.30;99.90;;;;;;5073532;28;20473;-79
2023/08/16 06:37:41;;;;;;;6.75;6.15;;;22.50;99.90;;;;;;5071959;28;20085;-77
2023/08/16 06:40:08;;;;;;;9.35;5.57;;;22.70;99.90;;;;;;5072219;28;20024;-77
2023/08/16 06:42:34;;;;;;;6.03;5.40;;;22.90;99.90;;;;;;5072021;28;20031;-78
2023/08/16 06:45:00;;;;;;;8.35;5.93;;;23.00;99.90;;;;;;5072203;28;20111;-80
2023/08/16 06:47:26;;;;;;;7.43;6.35;;;23.10;99.90;;;;;;5072818;28;20103;-77
2023/08/16 06:49:52;;;;;;;8.43;5.72;;;23.30;99.90;;;;;;5073799;28;20048;-78
2023/08/16 06:52:18;;;;;;;5.70;4.88;;;23.30;99.90;;;;;;5073283;28;20016;-79
2023/08/16 06:54:43;;;;;;;8.27;5.32;;;23.40;99.90;;;;;;5071900;28;20559;-78
2023/08/16 06:57:11;;;;;;;5.30;4.90;;;23.50;99.90;;;;;;5071667;28;20119;-78
2023/08/16 06:59:38;;;;;;;7.97;5.05;;;23.60;99.90;;;;;;5071846;28;20074;-78
2023/08/16 07:02:04;;;;;;;5.93;5.10;;;23.70;99.90;;;;;;5071808;28;20131;-78
2023/08/16 07:04:29;;;;;;;6.18;4.57;;;23.80;99.90;;;;;;5071604;28;20024;-77
2023/08/16 07:06:55;;;;;;;5.65;5.07;;;24.10;99.90;;;;;;5071336;28;20025;-78
2023/08/16 07:09:24;;;;;;;8.57;5.57;;;24.20;99.90;;;;;;5071552;28;20027;-78
2023/08/16 07:11:50;;;;;;;5.78;5.28;;;24.30;99.90;;;;;;5071442;28;20028;-80
2023/08/16 07:14:15;;;;;;;6.65;5.38;;;24.40;99.90;;;;;;5071563;28;20021;-79
2023/08/16 07:16:41;;;;;;;8.57;5.10;;;24.40;99.90;;;;;;5071375;28;20123;-78
2023/08/16 07:19:08;;;;;;;4.70;4.15;;;24.50;99.90;;;;;;5072637;28;20413;-78
2023/08/16 07:21:35;;;;;;;5.68;4.00;;;24.70;99.90;;;;;;5071467;28;20553;-78
2023/08/16 07:24:01;;;;;;;4.82;4.32;;;24.90;99.90;;;;;;5072494;28;20085;-78
2023/08/16 07:26:27;;;;;;;4.80;3.95;;;25.00;99.90;;;;;;5072310;28;20020;-78
2023/08/16 07:28:53;;;;;;;5.00;4.47;;;25.20;99.90;;;;;;5071205;28;20547;-78
2023/08/16 07:31:18;;;;;;;5.60;4.47;;;25.30;99.90;;;;;;5072739;28;20021;-81
2023/08/16 07:33:44;;;;;;;4.80;4.38;;;25.50;98.80;;;;;;5071217;28;20024;-78
2023/08/16 07:36:10;;;;;;;5.03;4.53;;;25.60;98.40;;;;;;5072424;28;20374;-80
2023/08/16 07:38:36;;;;;;;4.78;4.30;;;25.60;97.50;;;;;;5070769;28;20400;-77
2023/08/16 07:41:02;;;;;;;4.43;4.03;;;25.50;98.20;;;;;;5072765;28;20020;-80
2023/08/16 07:43:30;;;;;;;4.65;4.25;;;25.40;98.50;;;;;;5071204;28;20030;-80
2023/08/16 07:45:56;;;;;;;8.98;4.45;;;25.40;99.40;;;;;;5071098;28;20458;-80
2023/08/16 07:48:21;;;;;;;5.43;4.93;;;25.40;99.50;;;;;;5070731;28;20051;-80
2023/08/16 07:50:49;;;;;;;5.05;4.30;;;25.50;98.80;;;;;;5071076;28;20198;-78
2023/08/16 07:53:14;;;;;;;6.82;4.82;;;25.90;98.90;;;;;;5071180;28;20485;-78
2023/08/16 07:55:40;;;;;;;7.53;4.65;;;26.10;97.80;;;;;;5072221;28;20028;-80
2023/08/16 07:58:06;;;;;;;5.43;4.55;;;26.30;98.10;;;;;;5070609;28;20115;-80
2023/08/16 08:00:31;;;;;;;7.38;3.78;;;26.50;96.80;;;;;;5072658;28;20028;-79
2023/08/16 08:02:57;;;;;;;3.85;3.47;;;26.70;95.90;;;;;;5071236;28;20020;-81
2023/08/16 08:05:23;;;;;;;4.78;4.28;;;27.00;96.20;;;;;;5071232;28;20051;-80
2023/08/16 08:07:49;;;;;;;8.55;7.70;;;27.30;96.90;;;;;;5070597;28;20031;-79
2023/08/16 08:10:15;;;;;;;4.80;4.18;;;27.40;95.50;;;;;;5071141;28;20111;-79
2023/08/16 08:12:47;;;;;;;4.45;4.05;;;27.50;95.40;;;;;;5072174;28;20025;-80
2023/08/16 08:15:13;;;;;;;4.00;3.60;;;27.60;93.70;;;;;;5073510;28;20075;-81
2023/08/16 08:17:40;;;;;;;7.18;3.75;;;27.70;93.30;;;;;;5073993;28;20070;-78
2023/08/16 08:20:07;;;;;;;4.55;4.10;;;27.70;93.90;;;;;;5074434;28;20477;-77
2023/08/16 08:22:33;;;;;;;4.38;3.95;;;27.70;93.00;;;;;;5074272;28;20485;-78
2023/08/16 08:24:58;;;;;;;3.88;3.55;;;27.80;93.20;;;;;;5073520;28;20021;-79
2023/08/16 08:27:24;;;;;;;6.30;4.10;;;27.80;94.80;;;;;;5071708;28;20021;-81
2023/08/16 08:29:50;;;;;;;5.30;3.72;;;27.60;93.00;;;;;;5073087;28;20021;-79
2023/08/16 08:32:16;;;;;;;4.38;4.03;;;27.50;94.50;;;;;;5071604;28;20017;-80
2023/08/16 08:34:42;;;;;;;4.75;4.25;;;27.30;93.90;;;;;;5071633;28;20056;-77
2023/08/16 08:37:08;;;;;;;4.43;4.03;;;27.50;95.00;;;;;;5082202;22;20483;-76
2023/08/16 08:39:33;;;;;;;5.75;3.70;;;27.50;94.70;;;;;;5032824;28;20025;-76
2023/08/16 08:41:59;;;;;;;3.45;3.15;;;27.70;94.60;;;;;;5035685;28;20026;-76
2023/08/16 08:44:25;;;;;;;4.68;4.25;;;27.90;93.90;;;;;;5035648;28;20507;-76
2023/08/16 08:46:51;;;;;;;3.97;3.65;;;28.00;93.60;;;;;;5035646;28;20025;-76
2023/08/16 08:49:19;;;;;;;5.25;3.97;;;28.20;94.20;;;;;;5035675;28;20026;-77
2023/08/16 08:51:47;;;;;;;5.97;3.78;;;28.30;92.60;;;;;;5017747;28;20025;-76
2023/08/16 08:54:12;;;;;;;6.00;3.88;;;28.20;91.10;;;;;;5035508;28;20061;-77
2023/08/16 08:56:40;;;;;;;4.45;4.05;;;28.00;91.10;;;;;;5035115;28;20045;-76
2023/08/16 08:59:06;;;;;;;4.75;4.30;;;28.10;91.90;;;;;;5018128;28;20052;-77
2023/08/16 09:01:33;;;;;;;5.00;3.58;;;28.30;91.40;;;;;;5017881;28;20025;-76
2023/08/16 09:04:03;;;;;;;4.65;3.30;;;28.50;90.70;;;;;;5017599;28;20037;-74
2023/08/16 09:06:29;;;;;;;4.05;3.03;;;28.60;88.50;;;;;;5017294;28;20029;-76
2023/08/16 09:09:00;;;;;;;7.32;4.18;;;28.80;89.70;;;;;;5035692;28;20026;-77
2023/08/16 09:11:26;;;;;;;5.35;3.67;;;29.00;90.80;;;;;;5035585;28;20022;-76
2023/08/16 09:13:53;;;;;;;3.70;3.00;;;28.80;86.30;;;;;;5035771;28;20029;-77
2023/08/16 09:16:20;;;;;;;4.97;3.30;;;29.10;88.40;;;;;;5035605;28;20107;-75
2023/08/16 09:18:47;;;;;;;8.32;4.15;;;29.30;90.10;;;;;;5033431;28;20021;-76
2023/08/16 09:21:18;;;;;;;4.32;2.97;;;29.30;85.30;;;;;;5034445;28;20099;-76
2023/08/16 09:23:45;;;;;;;3.55;2.90;;;29.30;85.20;;;;;;5016987;28;20116;-76
2023/08/16 09:26:18;;;;;;;4.63;2.60;;;29.40;83.80;;;;;;5034326;28;20539;-76
2023/08/16 09:28:44;;;;;;;4.90;3.08;;;29.60;83.60;;;;;;5032964;28;20032;-76
2023/08/16 09:31:10;;;;;;;5.90;2.85;;;29.70;83.00;;;;;;5034401;28;20026;-75
2023/08/16 09:33:38;;;;;;;3.20;2.42;;;29.80;77.20;;;;;;5035089;28;20026;-77
2023/08/16 09:36:04;;;;;;;3.00;2.78;;;29.90;74.10;;;;;;5034907;28;20029;-76
2023/08/16 09:38:32;;;;;;;3.03;2.70;;;30.00;76.50;;;;;;5033807;28;20034;-77
2023/08/16 09:40:58;;;;;;;4.80;3.10;;;29.90;74.00;;;;;;5034436;28;20021;-76
2023/08/16 09:43:24;;;;;;;5.82;2.50;;;30.00;74.90;;;;;;5034179;28;20052;-76
2023/08/16 09:45:54;;;;;;;7.05;3.75;;;30.00;68.90;;;;;;5034052;28;20053;-75
2023/08/16 09:48:21;;;;;;;3.53;2.53;;;30.10;67.60;;;;;;5016062;28;20025;-76
2023/08/16 09:50:47;;;;;;;6.95;2.33;;;30.10;67.70;;;;;;5034109;28;20024;-77
2023/08/16 09:53:13;;;;;;;6.13;2.80;;;30.10;67.50;;;;;;5034425;28;20033;-76
2023/08/16 09:55:40;;;;;;;5.28;2.63;;;30.10;67.30;;;;;;5032852;28;20142;-76
2023/08/16 09:58:07;;;;;;;2.80;2.38;;;30.30;71.20;;;;;;5015829;28;20108;-76
2023/08/16 10:00:34;;;;;;;2.88;2.40;;;30.40;66.70;;;;;;5015946;28;20040;-77
2023/08/16 10:03:01;;;;;;;2.97;2.38;;;30.40;65.20;;;;;;5015763;28;20491;-76
2023/08/16 10:05:27;;;;;;;7.65;2.80;;;30.50;67.60;;;;;;5016353;28;20029;-76
2023/08/16 10:07:59;;;;;;;7.03;2.60;;;30.50;67.60;;;;;;5033442;28;20033;-76
2023/08/16 10:10:25;;;;;;;2.83;2.55;;;30.40;69.40;;;;;;5015790;28;20152;-75
2023/08/16 10:12:53;;;;;;;3.92;3.00;;;30.40;69.50;;;;;;5033755;28;20022;-77
2023/08/16 10:15:19;;;;;;;2.72;2.50;;;30.50;69.10;;;;;;5015801;28;20108;-77
2023/08/16 10:17:50;;;;;;;2.40;2.30;;;30.70;67.20;;;;;;5034255;28;20024;-77
2023/08/16 10:20:23;;;;;;;2.72;2.40;;;30.90;63.50;;;;;;5033553;28;20017;-76
2023/08/16 10:22:57;;;;;;;4.03;2.90;;;31.10;62.70;;;;;;5033502;28;20035;-77
2023/08/16 10:25:25;;;;;;;2.85;2.50;;;31.10;61.60;;;;;;5033581;28;20068;-76
2023/08/16 10:27:55;;;;;;;6.93;2.15;;;31.10;62.20;;;;;;5015339;28;20053;-76
2023/08/16 10:30:23;;;;;;;5.35;2.63;;;31.20;60.90;;;;;;5034153;28;20092;-76
2023/08/16 10:32:59;;;;;;;3.08;2.80;;;31.30;61.50;;;;;;5033784;28;20029;-77
2023/08/16 10:35:25;;;;;;;2.28;2.08;;;31.40;62.80;;;;;;5015588;28;20060;-77
2023/08/16 10:37:53;;;;;;;3.22;2.78;;;31.50;60.90;;;;;;5032868;28;20087;-77
2023/08/16 10:40:20;;;;;;;3.33;2.67;;;31.50;61.90;;;;;;5015517;28;20029;-76
2023/08/16 10:42:56;;;;;;;3.10;2.10;;;31.40;62.60;;;;;;5015453;28;20021;-77
2023/08/16 10:45:34;;;;;;;2.67;2.47;;;31.30;62.10;;;;;;5033242;28;20049;-77
2023/08/16 10:48:18;;;;;;;5.82;2.20;;;31.60;64.70;;;;;;5032819;28;20025;-77
2023/08/16 10:50:50;;;;;;;3.83;2.47;;;31.50;60.90;;;;;;5015300;28;20025;-77
2023/08/16 10:53:18;;;;;;;2.80;2.08;;;31.20;59.90;;;;;;5033050;28;20258;-76
2023/08/16 10:55:52;;;;;;;2.85;2.13;;;30.60;61.40;;;;;;5032812;28;20100;-77
2023/08/16 10:58:23;;;;;;;3.78;3.10;;;30.70;61.20;;;;;;5015016;28;20491;-77
2023/08/16 11:00:57;;;;;;;3.70;2.70;;;30.70;62.60;;;;;;5016644;28;20120;-77
2023/08/16 11:03:33;;;;;;;5.05;3.10;;;30.80;66.50;;;;;;5034553;28;20033;-77
2023/08/16 11:06:08;;;;;;;3.33;3.03;;;31.10;66.30;;;;;;5016700;28;20040;-77
2023/08/16 11:08:34;;;;;;;3.65;2.60;;;31.30;65.70;;;;;;5017089;28;20452;-78
2023/08/16 11:11:03;;;;;;;4.65;3.45;;;31.40;63.20;;;;;;5035081;28;20063;-78
2023/08/16 11:13:29;;;;;;;3.55;2.30;;;31.10;62.90;;;;;;5016737;28;20462;-78
2023/08/16 11:15:58;;;;;;;3.47;2.60;;;31.20;64.00;;;;;;5035130;28;20053;-77
2023/08/16 11:18:32;;;;;;;4.50;2.65;;;31.20;60.50;;;;;;5016538;28;20087;-78
2023/08/16 11:21:01;;;;;;;2.67;2.47;;;31.20;66.20;;;;;;5016834;28;20029;-78
2023/08/16 11:23:39;;;;;;;5.47;2.33;;;31.10;62.70;;;;;;5016219;28;20035;-77
2023/08/16 11:26:07;;;;;;;2.17;1.98;;;31.20;61.00;;;;;;5034612;28;20048;-77
2023/08/16 11:28:33;;;;;;;2.95;2.65;;;31.20;61.20;;;;;;5015645;28;20021;-78
2023/08/16 11:31:00;;;;;;;5.47;2.67;;;31.30;60.60;;;;;;5016022;28;20031;-78
2023/08/16 11:33:34;;;;;;;2.78;2.58;;;31.10;61.10;;;;;;5033890;28;20579;-77
2023/08/16 11:36:01;;;;;;;2.67;2.45;;;31.40;62.10;;;;;;5015981;28;20111;-78
2023/08/16 11:38:27;;;;;;;2.33;2.13;;;31.50;61.00;;;;;;5015499;28;20037;-78
2023/08/16 11:40:53;;;;;;;3.42;3.13;;;31.60;62.90;;;;;;5034049;28;20386;-78
2023/08/16 11:43:28;;;;;;;6.43;3.00;;;31.50;65.50;;;;;;5033548;28;20037;-77
2023/08/16 11:45:55;;;;;;;3.63;3.33;;;31.30;67.40;;;;;;5033836;28;20025;-77
2023/08/16 11:48:21;;;;;;;5.63;2.80;;;31.40;66.50;;;;;;5033508;28;20612;-78
2023/08/16 11:50:48;;;;;;;3.15;2.13;;;31.20;67.30;;;;;;5033876;28;20083;-77
2023/08/16 11:53:19;;;;;;;5.93;3.28;;;31.30;65.60;;;;;;5033461;28;20026;-77
2023/08/16 11:55:57;;;;;;;6.70;2.72;;;31.20;67.00;;;;;;5033853;28;20522;-78
2023/08/16 11:58:23;;;;;;;3.47;3.17;;;31.10;64.60;;;;;;5033704;28;20375;-78
2023/08/16 12:00:48;;;;;;;5.65;3.35;;;30.80;66.40;;;;;;5034501;28;20032;-77
2023/08/16 12:03:17;;;;;;;3.72;3.22;;;30.80;66.30;;;;;;5016027;28;20087;-78
2023/08/16 12:05:50;;;;;;;4.55;3.25;;;30.90;66.40;;;;;;5015907;28;20018;-77
2023/08/16 12:08:20;;;;;;;3.50;3.00;;;31.10;63.00;;;;;;5033185;28;20018;-78
2023/08/16 12:10:55;;;;;;;3.45;2.67;;;31.10;65.90;;;;;;5033263;28;20080;-77
2023/08/16 12:13:23;;;;;;;4.68;3.33;;;30.90;65.50;;;;;;5014949;28;20030;-77
2023/08/16 12:15:49;;;;;;;3.33;3.03;;;31.00;64.80;;;;;;5035810;28;20029;-78
2023/08/16 12:18:15;;;;;;;4.43;2.72;;;31.00;63.10;;;;;;5038220;28;20038;-77
2023/08/16 12:20:42;;;;;;;3.72;2.25;;;31.00;63.70;;;;;;5037175;28;20026;-77
2023/08/16 12:23:08;;;;;;;3.45;2.80;;;30.70;64.00;;;;;;5036839;28;20068;-78
2023/08/16 12:25:35;;;;;;;10.18;2.95;;;30.80;63.70;;;;;;5036709;28;20080;-76
2023/08/16 12:28:01;;;;;;;2.47;2.28;;;31.00;63.60;;;;;;5018660;28;20022;-77
2023/08/16 12:30:28;;;;;;;3.47;2.60;;;31.00;62.10;;;;;;5036811;28;20027;-77
2023/08/16 12:32:54;;;;;;;1.92;1.83;;;31.10;59.80;;;;;;5018981;28;20021;-77
2023/08/16 12:35:20;;;;;;;3.78;2.55;;;31.20;58.40;;;;;;5019059;28;20026;-77
2023/08/16 12:37:45;;;;;;;2.95;2.63;;;31.20;58.00;;;;;;5036832;28;20042;-77
2023/08/16 12:40:11;;;;;;;3.63;2.85;;;31.10;56.70;;;;;;5019155;28;20056;-77
2023/08/16 12:42:37;;;;;;;2.65;2.45;;;30.70;60.10;;;;;;5036787;28;20526;-77
2023/08/16 12:45:03;;;;;;;3.17;2.40;;;30.90;60.00;;;;;;5036611;28;20177;-77